Time;durP1;ratioP1;P1;durP2;ratioP2;P2;SDS_P1;SDS_P2;PMS_P1;PMS_P2;Temp;Humidity;BMP_temperature;BMP_pressure;BME280_temperature;BME280_humidity;BME280_pressure;Samples;Min_cycle;Max_cycle;Signal;HPM_P1;HPM_P2
2023/09/24 00:01:13;;;;;;;11.05;7.65;;;;;;;;;;5083379;28;20497;-64
2023/09/24 00:03:41;;;;;;;14.23;8.68;;;;;;;;;;5078059;28;20457;-64
2023/09/24 00:06:09;;;;;;;14.63;7.93;;;;;;;;;;5086279;28;20501;-64
2023/09/24 00:08:36;;;;;;;12.60;7.80;;;;;;;;;;5082646;28;20830;-64
2023/09/24 00:11:08;;;;;;;13.93;7.47;;;;;;;;;;5079962;28;20542;-65
2023/09/24 00:13:35;;;;;;;10.27;7.72;;;;;;;;;;5079382;28;20418;-63
2023/09/24 00:16:05;;;;;;;12.82;7.20;;;;;;;;;;5080719;28;20409;-64
2023/09/24 00:18:33;;;;;;;12.15;7.22;;;;;;;;;;5081904;28;20410;-64
2023/09/24 00:21:00;;;;;;;13.27;7.72;;;;;;;;;;5079602;28;20407;-64
2023/09/24 00:23:28;;;;;;;11.05;6.72;;;;;;;;;;5079578;28;20412;-64
2023/09/24 00:25:55;;;;;;;9.52;7.20;;;;;;;;;;5081664;28;20410;-64
2023/09/24 00:28:22;;;;;;;12.60;6.90;;;;;;;;;;5080262;28;20882;-64
2023/09/24 00:30:50;;;;;;;14.57;6.87;;;;;;;;;;5079784;28;20556;-64
2023/09/24 00:33:19;;;;;;;11.35;7.28;;;;;;;;;;5086496;28;20410;-64
2023/09/24 00:35:46;;;;;;;12.50;6.35;;;;;;;;;;5084364;28;20508;-64
2023/09/24 00:38:13;;;;;;;12.80;6.50;;;;;;;;;;5084205;28;20416;-64
2023/09/24 00:40:40;;;;;;;10.40;6.22;;;;;;;;;;5082245;28;20768;-64
2023/09/24 00:43:22;;;;;;;9.60;5.90;;;;;;;;;;5084153;28;20406;-64
2023/09/24 00:45:50;;;;;;;12.93;6.90;;;;;;;;;;5081556;28;20406;-64
2023/09/24 00:48:18;;;;;;;12.43;6.50;;;;;;;;;;5083974;28;20784;-64
2023/09/24 00:50:45;;;;;;;10.15;6.25;;;;;;;;;;5083207;28;20522;-64
2023/09/24 00:53:12;;;;;;;10.35;6.63;;;;;;;;;;5083661;28;20406;-64
2023/09/24 00:55:39;;;;;;;11.73;6.22;;;;;;;;;;5078881;28;20465;-64
2023/09/24 00:58:08;;;;;;;10.65;6.53;;;;;;;;;;5085245;28;20432;-64
2023/09/24 01:00:35;;;;;;;12.35;7.03;;;;;;;;;;5084179;28;20757;-64
2023/09/24 01:03:02;;;;;;;11.52;6.22;;;;;;;;;;5082425;28;20403;-64
2023/09/24 01:05:31;;;;;;;11.50;6.10;;;;;;;;;;5083108;28;20852;-64
2023/09/24 01:07:58;;;;;;;11.88;6.05;;;;;;;;;;5087516;28;20416;-64
2023/09/24 01:10:25;;;;;;;11.10;6.35;;;;;;;;;;5086795;28;20437;-65
2023/09/24 01:12:55;;;;;;;10.65;6.20;;;;;;;;;;5089071;28;20461;-65
2023/09/24 01:15:24;;;;;;;9.90;6.00;;;;;;;;;;5085131;28;20753;-65
2023/09/24 01:17:52;;;;;;;13.20;6.57;;;;;;;;;;5088881;28;20780;-64
2023/09/24 01:20:22;;;;;;;11.80;6.47;;;;;;;;;;5084875;28;20410;-64
2023/09/24 01:22:50;;;;;;;11.50;6.88;;;;;;;;;;5088635;28;20433;-64
2023/09/24 01:25:19;;;;;;;16.05;7.20;;;;;;;;;;5086062;28;20517;-64
2023/09/24 01:27:46;;;;;;;11.25;7.32;;;;;;;;;;5080722;28;20490;-64
2023/09/24 01:30:14;;;;;;;11.63;6.83;;;;;;;;;;5084401;28;20540;-65
2023/09/24 01:32:41;;;;;;;11.02;7.22;;;;;;;;;;5082834;28;20407;-64
2023/09/24 01:35:08;;;;;;;11.27;6.97;;;;;;;;;;5081532;28;20573;-64
2023/09/24 01:37:35;;;;;;;10.43;6.82;;;;;;;;;;5083984;28;20425;-64
2023/09/24 01:40:16;;;;;;;18.35;7.88;;;;;;;;;;5083767;28;20949;-65
2023/09/24 01:42:43;;;;;;;16.13;7.70;;;;;;;;;;5083541;28;20424;-64
2023/09/24 01:45:11;;;;;;;12.82;8.30;;;;;;;;;;5081184;28;20428;-64
2023/09/24 01:47:38;;;;;;;16.17;8.43;;;;;;;;;;5085323;28;20984;-64
2023/09/24 01:50:07;;;;;;;13.73;8.63;;;;;;;;;;5081531;28;20463;-64
2023/09/24 01:52:35;;;;;;;19.58;9.52;;;;;;;;;;5083267;28;20452;-64
2023/09/24 01:55:02;;;;;;;18.50;9.20;;;;;;;;;;5083585;28;20398;-64
2023/09/24 01:57:31;;;;;;;14.82;7.93;;;;;;;;;;5084537;28;20400;-64
2023/09/24 02:00:20;;;;;;;19.25;9.18;;;;;;;;;;5082220;28;20415;-64
2023/09/24 02:02:45;;;;;;;16.17;9.43;;;;;;;;;;5084739;28;20398;-64
2023/09/24 02:05:13;;;;;;;18.67;10.07;;;;;;;;;;5082301;28;20844;-64
2023/09/24 02:07:40;;;;;;;14.65;9.70;;;;;;;;;;5080936;28;20414;-64
2023/09/24 02:10:08;;;;;;;19.63;11.30;;;;;;;;;;5084205;28;20412;-64
2023/09/24 02:12:37;;;;;;;18.75;11.50;;;;;;;;;;5083067;28;20408;-64
2023/09/24 02:15:10;;;;;;;18.35;11.80;;;;;;;;;;5080785;28;20412;-64
2023/09/24 02:17:40;;;;;;;19.40;12.02;;;;;;;;;;5081934;28;20845;-64
2023/09/24 02:20:18;;;;;;;20.35;12.52;;;;;;;;;;5083603;28;20433;-64
2023/09/24 02:22:45;;;;;;;19.52;12.25;;;;;;;;;;5083423;28;20776;-64
2023/09/24 02:25:13;;;;;;;16.13;11.15;;;;;;;;;;5081107;28;20912;-64
2023/09/24 02:27:42;;;;;;;21.23;11.90;;;;;;;;;;5083589;28;20421;-64
2023/09/24 02:30:10;;;;;;;17.30;12.00;;;;;;;;;;5082914;28;20505;-64
2023/09/24 02:32:38;;;;;;;22.33;12.93;;;;;;;;;;5083047;28;20410;-64
2023/09/24 02:35:05;;;;;;;21.90;12.48;;;;;;;;;;5080879;28;20407;-64
2023/09/24 02:37:32;;;;;;;21.10;12.23;;;;;;;;;;5081727;28;20408;-64
2023/09/24 02:40:00;;;;;;;22.27;12.30;;;;;;;;;;5083001;28;20449;-64
2023/09/24 02:42:27;;;;;;;18.42;11.43;;;;;;;;;;5081793;28;20495;-64
2023/09/24 02:44:56;;;;;;;22.17;11.52;;;;;;;;;;5080203;28;20427;-64
2023/09/24 02:47:24;;;;;;;20.17;12.23;;;;;;;;;;5082449;28;20406;-64
2023/09/24 02:49:51;;;;;;;19.30;11.55;;;;;;;;;;5082583;28;20837;-64
2023/09/24 02:52:18;;;;;;;19.33;11.65;;;;;;;;;;5080201;28;20812;-64
2023/09/24 02:54:46;;;;;;;20.02;11.60;;;;;;;;;;5081798;28;20456;-64
2023/09/24 02:57:13;;;;;;;18.65;11.18;;;;;;;;;;5079995;28;20410;-64
2023/09/24 02:59:40;;;;;;;19.05;11.10;;;;;;;;;;5081401;28;20418;-64
2023/09/24 03:02:08;;;;;;;20.40;11.57;;;;;;;;;;5080753;28;20403;-64
2023/09/24 03:04:35;;;;;;;19.70;11.52;;;;;;;;;;5072076;28;20469;-64
2023/09/24 03:07:02;;;;;;;19.77;12.00;;;;;;;;;;5071727;28;20411;-64
2023/09/24 03:09:30;;;;;;;19.15;12.20;;;;;;;;;;5071866;28;20435;-64
2023/09/24 03:11:57;;;;;;;22.67;12.15;;;;;;;;;;5071842;28;20416;-64
2023/09/24 03:14:24;;;;;;;22.07;12.77;;;;;;;;;;5070844;28;20813;-64
2023/09/24 03:16:51;;;;;;;24.80;13.25;;;;;;;;;;5075169;28;20489;-64
2023/09/24 03:19:20;;;;;;;21.17;13.32;;;;;;;;;;5081705;28;20405;-64
2023/09/24 03:21:47;;;;;;;20.55;12.60;;;;;;;;;;5080491;28;20404;-64
2023/09/24 03:24:14;;;;;;;21.27;12.70;;;;;;;;;;5079630;28;20470;-64
2023/09/24 03:26:42;;;;;;;21.60;12.88;;;;;;;;;;5079980;28;20461;-64
2023/09/24 03:29:08;;;;;;;21.80;12.88;;;;;;;;;;5081052;28;20410;-64
2023/09/24 03:31:35;;;;;;;16.58;12.20;;;;;;;;;;5082281;28;20466;-63
2023/09/24 03:34:02;;;;;;;19.80;12.47;;;;;;;;;;5079948;28;20420;-64
2023/09/24 03:36:31;;;;;;;21.20;12.27;;;;;;;;;;5084324;28;20824;-64
2023/09/24 03:38:58;;;;;;;19.67;12.70;;;;;;;;;;5079668;28;20469;-64
2023/09/24 03:41:25;;;;;;;19.45;12.88;;;;;;;;;;5080760;28;20896;-64
2023/09/24 03:43:52;;;;;;;21.00;13.27;;;;;;;;;;5081751;28;20762;-64
2023/09/24 03:46:20;;;;;;;21.98;12.60;;;;;;;;;;5080458;28;20476;-64
2023/09/24 03:48:46;;;;;;;22.80;13.00;;;;;;;;;;5079697;28;20429;-64
2023/09/24 03:51:14;;;;;;;19.08;12.32;;;;;;;;;;5070922;28;20403;-63
2023/09/24 03:53:43;;;;;;;21.50;12.05;;;;;;;;;;5074164;28;20465;-64
2023/09/24 03:56:10;;;;;;;23.33;12.60;;;;;;;;;;5081951;28;20406;-63
2023/09/24 03:58:37;;;;;;;22.42;12.70;;;;;;;;;;5080686;28;20457;-64
2023/09/24 04:01:10;;;;;;;20.95;11.85;;;;;;;;;;5079126;28;20423;-64
2023/09/24 04:03:38;;;;;;;19.75;12.18;;;;;;;;;;5080428;28;20402;-63
2023/09/24 04:06:09;;;;;;;20.13;12.43;;;;;;;;;;5081792;28;20516;-64
2023/09/24 04:08:36;;;;;;;20.65;13.27;;;;;;;;;;5080800;28;20429;-64
2023/09/24 04:11:09;;;;;;;23.75;13.27;;;;;;;;;;5078892;28;20418;-63
2023/09/24 04:13:38;;;;;;;22.23;13.73;;;;;;;;;;5080851;28;20409;-64
2023/09/24 04:16:12;;;;;;;22.43;13.10;;;;;;;;;;5079452;28;20408;-64
2023/09/24 04:18:41;;;;;;;22.02;13.48;;;;;;;;;;5080317;28;20494;-64
2023/09/24 04:21:14;;;;;;;27.95;12.52;;;;;;;;;;5079233;28;20412;-64
2023/09/24 04:23:41;;;;;;;20.52;12.27;;;;;;;;;;5078970;28;20435;-64
2023/09/24 04:26:18;;;;;;;25.80;13.05;;;;;;;;;;5081140;28;20942;-64
2023/09/24 04:28:45;;;;;;;18.52;12.55;;;;;;;;;;5081856;28;20413;-64
2023/09/24 04:31:12;;;;;;;24.77;13.45;;;;;;;;;;5082470;28;21158;-64
2023/09/24 04:33:41;;;;;;;21.55;12.32;;;;;;;;;;5083283;28;20820;-64
2023/09/24 04:36:09;;;;;;;19.92;12.27;;;;;;;;;;5086801;28;20405;-64
2023/09/24 04:38:37;;;;;;;19.92;11.80;;;;;;;;;;5083261;28;20423;-64
2023/09/24 04:41:04;;;;;;;18.45;11.23;;;;;;;;;;5083023;28;20498;-63
2023/09/24 04:43:33;;;;;;;22.05;12.27;;;;;;;;;;5083822;28;20442;-64
2023/09/24 04:46:02;;;;;;;22.73;12.95;;;;;;;;;;5085324;28;20425;-64
2023/09/24 04:48:28;;;;;;;21.30;12.82;;;;;;;;;;5084351;28;20499;-64
2023/09/24 04:50:56;;;;;;;21.90;12.60;;;;;;;;;;5082743;28;20419;-64
2023/09/24 04:53:23;;;;;;;22.42;13.23;;;;;;;;;;5084006;28;20442;-64
2023/09/24 04:55:50;;;;;;;18.10;11.95;;;;;;;;;;5084888;28;20406;-64
2023/09/24 04:58:17;;;;;;;20.48;12.40;;;;;;;;;;5073766;28;20461;-64
2023/09/24 05:00:45;;;;;;;20.40;12.15;;;;;;;;;;5073707;28;20411;-64
2023/09/24 05:03:12;;;;;;;18.92;12.45;;;;;;;;;;5073570;28;20464;-63
2023/09/24 05:05:42;;;;;;;22.65;12.50;;;;;;;;;;5073325;28;20476;-64
2023/09/24 05:08:09;;;;;;;21.70;12.30;;;;;;;;;;5081363;28;20463;-64
2023/09/24 05:10:36;;;;;;;27.40;14.80;;;;;;;;;;5083247;28;20403;-63
2023/09/24 05:13:04;;;;;;;25.77;14.75;;;;;;;;;;5082235;28;20545;-64
2023/09/24 05:15:31;;;;;;;26.23;15.57;;;;;;;;;;5072997;28;20403;-63
2023/09/24 05:17:59;;;;;;;25.30;14.77;;;;;;;;;;5073255;28;20484;-63
2023/09/24 05:20:26;;;;;;;23.48;13.77;;;;;;;;;;5073181;28;20407;-64
2023/09/24 05:22:53;;;;;;;23.63;13.48;;;;;;;;;;5073279;28;20951;-63
2023/09/24 05:25:20;;;;;;;21.98;13.50;;;;;;;;;;5080793;28;20426;-64
2023/09/24 05:27:47;;;;;;;20.58;13.90;;;;;;;;;;5082836;28;20490;-64
2023/09/24 05:30:15;;;;;;;23.77;14.40;;;;;;;;;;5082537;28;20461;-64
2023/09/24 05:32:42;;;;;;;25.47;14.67;;;;;;;;;;5084349;28;20418;-64
2023/09/24 05:35:10;;;;;;;26.95;13.85;;;;;;;;;;5083446;28;20464;-64
2023/09/24 05:37:39;;;;;;;24.13;14.52;;;;;;;;;;5082959;28;20412;-64
2023/09/24 05:40:06;;;;;;;23.97;13.63;;;;;;;;;;5087940;28;20422;-64
2023/09/24 05:42:33;;;;;;;20.63;14.50;;;;;;;;;;5088335;28;20464;-64
2023/09/24 05:45:00;;;;;;;23.10;13.70;;;;;;;;;;5086970;28;20460;-64
2023/09/24 05:47:27;;;;;;;21.60;13.88;;;;;;;;;;5086296;28;20415;-64
2023/09/24 05:49:54;;;;;;;19.35;13.95;;;;;;;;;;5085947;28;20416;-64
2023/09/24 05:52:22;;;;;;;23.00;14.27;;;;;;;;;;5083071;28;20413;-64
2023/09/24 05:54:49;;;;;;;20.50;13.48;;;;;;;;;;5080292;28;20438;-64
2023/09/24 05:57:17;;;;;;;22.90;12.95;;;;;;;;;;5083317;28;20449;-64
2023/09/24 05:59:44;;;;;;;19.10;12.60;;;;;;;;;;5083701;28;20410;-64
2023/09/24 06:02:11;;;;;;;19.20;12.77;;;;;;;;;;5081446;28;21044;-64
2023/09/24 06:04:38;;;;;;;19.30;11.63;;;;;;;;;;5082164;28;20412;-63
2023/09/24 06:07:06;;;;;;;18.80;11.43;;;;;;;;;;5083733;28;20981;-63
2023/09/24 06:09:34;;;;;;;18.42;12.10;;;;;;;;;;5082299;28;20411;-63
2023/09/24 06:12:01;;;;;;;16.77;11.13;;;;;;;;;;5080949;28;20884;-64
2023/09/24 06:14:28;;;;;;;18.93;11.50;;;;;;;;;;5082666;28;20472;-64
2023/09/24 06:16:55;;;;;;;15.88;10.38;;;;;;;;;;5083400;28;20401;-64
2023/09/24 06:19:22;;;;;;;16.60;10.13;;;;;;;;;;5081161;28;20403;-64
2023/09/24 06:21:51;;;;;;;16.63;9.90;;;;;;;;;;5082212;28;20455;-64
2023/09/24 06:24:19;;;;;;;15.53;8.93;;;;;;;;;;5082887;28;20412;-64
2023/09/24 06:26:48;;;;;;;18.92;9.40;;;;;;;;;;5081352;28;20430;-64
2023/09/24 06:29:15;;;;;;;12.18;8.90;;;;;;;;;;5080695;28;20415;-64
2023/09/24 06:31:42;;;;;;;13.40;8.73;;;;;;;;;;5082832;28;20413;-64
2023/09/24 06:34:09;;;;;;;13.70;8.40;;;;;;;;;;5082661;28;20892;-64
2023/09/24 06:36:36;;;;;;;10.95;8.20;;;;;;;;;;5080980;28;20407;-64
2023/09/24 06:39:08;;;;;;;14.20;7.60;;;;;;;;;;5081625;28;20414;-64
2023/09/24 06:41:35;;;;;;;11.23;7.85;;;;;;;;;;5082709;28;20818;-64
2023/09/24 06:44:03;;;;;;;14.07;7.22;;;;;;;;;;5081586;28;20863;-64
2023/09/24 06:46:30;;;;;;;10.68;7.07;;;;;;;;;;5080395;28;20424;-64
2023/09/24 06:48:57;;;;;;;11.40;6.28;;;;;;;;;;5082299;28;20406;-64
2023/09/24 06:51:24;;;;;;;11.18;6.63;;;;;;;;;;5083331;28;20430;-64
2023/09/24 06:53:52;;;;;;;10.38;6.25;;;;;;;;;;5081567;28;20416;-65
2023/09/24 06:56:19;;;;;;;10.15;6.60;;;;;;;;;;5085397;28;20418;-64
2023/09/24 06:58:46;;;;;;;12.48;6.40;;;;;;;;;;5086200;28;20821;-64
2023/09/24 07:01:14;;;;;;;10.07;6.75;;;;;;;;;;5084498;28;20414;-64
2023/09/24 07:03:41;;;;;;;11.53;6.13;;;;;;;;;;5085829;28;20452;-64
2023/09/24 07:06:09;;;;;;;11.10;6.85;;;;;;;;;;5083249;28;20495;-64
2023/09/24 07:08:36;;;;;;;12.00;6.97;;;;;;;;;;5084524;28;20766;-64
2023/09/24 07:11:22;;;;;;;9.68;6.32;;;;;;;;;;5083502;28;20422;-64
2023/09/24 07:13:49;;;;;;;9.40;6.20;;;;;;;;;;5080672;28;20404;-64
2023/09/24 07:16:17;;;;;;;9.82;6.70;;;;;;;;;;5085133;28;20402;-64
2023/09/24 07:18:46;;;;;;;10.23;6.30;;;;;;;;;;5084357;28;20913;-64
2023/09/24 07:21:13;;;;;;;10.55;7.20;;;;;;;;;;5080450;28;20408;-64
2023/09/24 07:23:41;;;;;;;8.75;6.50;;;;;;;;;;5081036;28;20399;-64
2023/09/24 07:26:08;;;;;;;8.98;6.55;;;;;;;;;;5080249;28;20466;-64
2023/09/24 07:28:35;;;;;;;8.52;6.25;;;;;;;;;;5079862;28;20411;-64
2023/09/24 07:31:02;;;;;;;8.40;5.88;;;;;;;;;;5081720;28;20410;-64
2023/09/24 07:33:31;;;;;;;9.35;6.35;;;;;;;;;;5081929;28;20495;-63
2023/09/24 07:35:58;;;;;;;7.93;5.50;;;;;;;;;;5082201;28;20455;-63
2023/09/24 07:38:25;;;;;;;8.73;5.40;;;;;;;;;;5078110;28;20415;-63
2023/09/24 07:40:52;;;;;;;8.70;5.07;;;;;;;;;;5085770;28;20981;-63
2023/09/24 07:43:19;;;;;;;7.75;4.95;;;;;;;;;;5085385;28;20444;-63
2023/09/24 07:45:47;;;;;;;7.18;4.75;;;;;;;;;;5082041;28;20410;-63
2023/09/24 07:48:14;;;;;;;7.83;4.20;;;;;;;;;;5080836;28;20442;-63
2023/09/24 07:50:48;;;;;;;8.80;4.90;;;;;;;;;;5081618;28;20410;-63
2023/09/24 07:53:15;;;;;;;7.07;3.93;;;;;;;;;;5075309;28;20406;-63
2023/09/24 07:55:42;;;;;;;9.13;4.60;;;;;;;;;;5082695;28;20437;-64
2023/09/24 07:58:10;;;;;;;7.50;3.77;;;;;;;;;;5084986;28;20477;-65
2023/09/24 08:00:38;;;;;;;8.32;3.20;;;;;;;;;;5084396;28;20410;-63
2023/09/24 08:03:05;;;;;;;5.07;3.38;;;;;;;;;;5082134;28;20418;-64
2023/09/24 08:05:33;;;;;;;5.95;3.30;;;;;;;;;;5081305;28;20417;-63
2023/09/24 08:08:01;;;;;;;5.95;3.10;;;;;;;;;;5085636;28;20841;-61
2023/09/24 08:10:28;;;;;;;7.50;2.67;;;;;;;;;;5081854;28;20411;-61
2023/09/24 08:12:55;;;;;;;7.15;2.97;;;;;;;;;;5085002;28;20463;-61
2023/09/24 08:15:22;;;;;;;5.70;2.70;;;;;;;;;;5091955;28;20408;-61
2023/09/24 08:17:49;;;;;;;5.33;2.40;;;;;;;;;;5086975;28;20881;-62
2023/09/24 08:20:16;;;;;;;6.03;2.40;;;;;;;;;;5083321;28;20411;-61
2023/09/24 08:22:43;;;;;;;5.03;2.57;;;;;;;;;;5083080;28;20526;-61
2023/09/24 08:25:12;;;;;;;5.78;2.00;;;;;;;;;;5082608;28;20814;-62
2023/09/24 08:27:39;;;;;;;3.58;1.77;;;;;;;;;;5082766;28;20471;-63
2023/09/24 08:30:07;;;;;;;6.13;2.15;;;;;;;;;;5083875;28;20422;-63
2023/09/24 08:32:34;;;;;;;6.40;2.13;;;;;;;;;;5085521;28;20507;-62
2023/09/24 08:35:01;;;;;;;3.50;1.88;;;;;;;;;;5083955;28;20473;-64
2023/09/24 08:37:28;;;;;;;4.80;1.77;;;;;;;;;;5082655;28;20411;-65
2023/09/24 08:39:55;;;;;;;4.22;1.63;;;;;;;;;;5084914;28;20410;-63
2023/09/24 08:42:23;;;;;;;4.40;1.67;;;;;;;;;;5084463;28;20410;-64
2023/09/24 08:44:54;;;;;;;4.28;1.90;;;;;;;;;;5082530;28;20416;-63
2023/09/24 08:47:22;;;;;;;4.60;2.03;;;;;;;;;;5083071;28;20507;-63
2023/09/24 08:49:50;;;;;;;5.25;1.75;;;;;;;;;;5085244;28;20490;-64
2023/09/24 08:52:18;;;;;;;4.27;1.83;;;;;;;;;;5084129;28;20418;-63
2023/09/24 08:54:46;;;;;;;4.90;1.60;;;;;;;;;;5081679;28;20460;-63
2023/09/24 08:57:14;;;;;;;4.90;1.90;;;;;;;;;;5083669;28;20500;-63
2023/09/24 08:59:43;;;;;;;5.00;1.92;;;;;;;;;;5085626;28;20414;-62
2023/09/24 09:02:10;;;;;;;4.63;1.60;;;;;;;;;;5084779;28;20401;-65
2023/09/24 09:04:48;;;;;;;4.68;1.63;;;;;;;;;;5084736;28;20407;-64
2023/09/24 09:07:15;;;;;;;3.90;1.60;;;;;;;;;;5083187;28;20512;-62
2023/09/24 09:09:42;;;;;;;4.00;1.67;;;;;;;;;;5082789;28;20419;-62
2023/09/24 09:12:18;;;;;;;4.72;1.63;;;;;;;;;;5083392;28;20410;-64
2023/09/24 09:14:47;;;;;;;2.90;1.60;;;;;;;;;;5084619;28;20406;-63
2023/09/24 09:17:14;;;;;;;5.67;1.60;;;;;;;;;;5081575;28;20411;-63
2023/09/24 09:19:48;;;;;;;4.25;1.42;;;;;;;;;;5085095;28;20406;-61
2023/09/24 09:22:18;;;;;;;6.28;1.58;;;;;;;;;;5084563;28;20864;-62
2023/09/24 09:24:47;;;;;;;4.30;1.40;;;;;;;;;;5082546;28;20412;-62
2023/09/24 09:27:14;;;;;;;4.88;1.40;;;;;;;;;;5082416;28;20896;-63
2023/09/24 09:29:41;;;;;;;4.40;1.70;;;;;;;;;;5081257;28;20777;-63
2023/09/24 09:32:09;;;;;;;4.28;1.60;;;;;;;;;;5083877;28;20410;-63
2023/09/24 09:34:36;;;;;;;5.35;1.38;;;;;;;;;;5083847;28;20417;-63
2023/09/24 09:37:20;;;;;;;4.13;1.50;;;;;;;;;;5082238;28;20768;-63
2023/09/24 09:39:47;;;;;;;4.35;1.55;;;;;;;;;;5071679;28;20423;-63
2023/09/24 09:42:18;;;;;;;4.30;1.20;;;;;;;;;;5072827;28;20440;-63
2023/09/24 09:44:47;;;;;;;2.13;1.20;;;;;;;;;;5081155;28;20408;-62
2023/09/24 09:47:19;;;;;;;2.92;1.50;;;;;;;;;;5081255;28;20789;-60
2023/09/24 09:49:49;;;;;;;5.63;1.40;;;;;;;;;;5072534;28;20412;-62
2023/09/24 09:52:19;;;;;;;5.90;1.98;;;;;;;;;;5072562;28;20778;-62
2023/09/24 09:54:49;;;;;;;5.38;1.65;;;;;;;;;;5081494;28;20422;-63
2023/09/24 09:57:17;;;;;;;4.28;1.45;;;;;;;;;;5080113;28;20458;-62
2023/09/24 09:59:44;;;;;;;4.40;1.30;;;;;;;;;;5082147;28;20421;-63
2023/09/24 10:02:12;;;;;;;3.15;1.20;;;;;;;;;;5083344;28;20409;-61
2023/09/24 10:04:40;;;;;;;3.35;1.27;;;;;;;;;;5081929;28;20408;-62
2023/09/24 10:07:07;;;;;;;5.07;1.23;;;;;;;;;;5083901;28;20435;-62
2023/09/24 10:09:35;;;;;;;3.17;1.23;;;;;;;;;;5083476;28;20780;-62
2023/09/24 10:12:06;;;;;;;3.92;1.30;;;;;;;;;;5082236;28;20452;-61
2023/09/24 10:14:34;;;;;;;3.30;1.30;;;;;;;;;;5082421;28;20836;-61
2023/09/24 10:17:20;;;;;;;4.70;1.48;;;;;;;;;;5081732;28;20409;-61
2023/09/24 10:19:49;;;;;;;3.80;1.33;;;;;;;;;;5082987;28;20409;-62
2023/09/24 10:22:35;;;;;;;4.20;1.30;;;;;;;;;;5080546;28;20439;-62
2023/09/24 10:25:03;;;;;;;5.53;1.25;;;;;;;;;;5077843;28;20408;-61
2023/09/24 10:27:34;;;;;;;4.33;1.37;;;;;;;;;;5080286;28;20495;-61
2023/09/24 10:30:04;;;;;;;3.88;1.33;;;;;;;;;;5080763;28;20445;-62
2023/09/24 10:32:43;;;;;;;3.95;1.13;;;;;;;;;;5079706;28;20487;-61
2023/09/24 10:35:12;;;;;;;4.75;1.10;;;;;;;;;;5081941;28;20412;-60
2023/09/24 10:37:54;;;;;;;3.50;1.10;;;;;;;;;;5082841;28;20406;-60
2023/09/24 10:40:21;;;;;;;3.17;1.20;;;;;;;;;;5083109;28;20398;-60
2023/09/24 10:43:08;;;;;;;2.92;1.13;;;;;;;;;;5080835;28;20412;-61
2023/09/24 10:45:34;;;;;;;3.08;1.20;;;;;;;;;;5079279;28;20408;-61
2023/09/24 10:48:03;;;;;;;2.63;1.20;;;;;;;;;;5079103;28;20420;-60
2023/09/24 10:50:32;;;;;;;3.80;0.98;;;;;;;;;;5081377;28;20911;-58
2023/09/24 10:52:59;;;;;;;3.07;1.00;;;;;;;;;;5082990;28;20496;-62
2023/09/24 10:55:34;;;;;;;3.23;1.17;;;;;;;;;;5078922;28;20512;-62
2023/09/24 10:58:02;;;;;;;4.00;1.10;;;;;;;;;;5082739;28;20497;-62
2023/09/24 11:00:30;;;;;;;3.63;1.00;;;;;;;;;;5081440;28;20457;-62
2023/09/24 11:02:57;;;;;;;4.88;1.08;;;;;;;;;;5080012;28;20893;-62
2023/09/24 11:05:25;;;;;;;2.83;1.10;;;;;;;;;;5081815;28;20445;-61
2023/09/24 11:07:54;;;;;;;4.05;1.20;;;;;;;;;;5081863;28;20428;-65
2023/09/24 11:10:22;;;;;;;3.33;1.20;;;;;;;;;;5079750;28;20922;-63
2023/09/24 11:12:49;;;;;;;3.72;1.20;;;;;;;;;;5087290;28;20425;-63
2023/09/24 11:15:17;;;;;;;3.25;1.20;;;;;;;;;;5087913;28;20440;-64
2023/09/24 11:17:47;;;;;;;2.85;1.10;;;;;;;;;;5085474;28;21461;-65
2023/09/24 11:20:17;;;;;;;2.40;1.08;;;;;;;;;;5084588;28;20406;-65
2023/09/24 11:22:44;;;;;;;3.08;1.10;;;;;;;;;;5088587;28;20450;-66
2023/09/24 11:25:13;;;;;;;4.23;1.07;;;;;;;;;;5088782;28;20977;-64
2023/09/24 11:27:47;;;;;;;2.28;1.00;;;;;;;;;;5087056;28;20428;-65
2023/09/24 11:30:15;;;;;;;3.45;1.20;;;;;;;;;;5086014;28;20508;-65
2023/09/24 11:32:43;;;;;;;2.33;1.20;;;;;;;;;;5087832;28;20425;-66
2023/09/24 11:35:10;;;;;;;2.70;1.30;;;;;;;;;;5089018;28;20818;-66
2023/09/24 11:38:01;;;;;;;2.67;1.00;;;;;;;;;;5088902;28;20417;-66
2023/09/24 11:40:30;;;;;;;3.77;1.40;;;;;;;;;;5077229;28;20458;-66
2023/09/24 11:43:16;;;;;;;5.40;1.40;;;;;;;;;;5086015;28;20406;-67
2023/09/24 11:45:46;;;;;;;3.85;1.15;;;;;;;;;;5079235;28;20486;-65
2023/09/24 11:48:14;;;;;;;3.38;1.13;;;;;;;;;;5088103;28;20421;-65
2023/09/24 11:50:41;;;;;;;4.50;1.20;;;;;;;;;;5083015;28;20405;-65
2023/09/24 11:53:08;;;;;;;1.80;1.10;;;;;;;;;;5086082;28;20467;-65
2023/09/24 11:55:37;;;;;;;3.20;1.20;;;;;;;;;;5081376;28;20422;-65
2023/09/24 11:58:05;;;;;;;2.67;1.10;;;;;;;;;;5080243;28;20410;-65
2023/09/24 12:00:33;;;;;;;4.28;1.15;;;;;;;;;;5081590;28;20509;-65
2023/09/24 12:03:00;;;;;;;3.28;1.38;;;;;;;;;;5079333;28;20922;-66
2023/09/24 12:05:27;;;;;;;4.05;1.30;;;;;;;;;;5078713;28;20410;-65
2023/09/24 12:07:54;;;;;;;3.47;1.35;;;;;;;;;;5078527;28;20436;-66
2023/09/24 12:10:22;;;;;;;2.67;1.20;;;;;;;;;;5079417;28;20408;-66
2023/09/24 12:12:50;;;;;;;3.27;1.27;;;;;;;;;;5086469;28;20888;-66
2023/09/24 12:15:18;;;;;;;3.00;1.30;;;;;;;;;;5076995;28;20544;-65
2023/09/24 12:17:46;;;;;;;2.47;1.17;;;;;;;;;;5078070;28;20466;-66
2023/09/24 12:20:13;;;;;;;2.90;1.10;;;;;;;;;;5079669;28;20491;-65
2023/09/24 12:22:41;;;;;;;3.40;1.10;;;;;;;;;;5082441;28;20437;-65
2023/09/24 12:25:08;;;;;;;3.28;1.00;;;;;;;;;;5077998;28;20447;-66
2023/09/24 12:27:36;;;;;;;4.18;1.27;;;;;;;;;;5081388;28;20424;-62
2023/09/24 12:30:05;;;;;;;2.88;0.98;;;;;;;;;;5078072;28;20494;-62
2023/09/24 12:32:32;;;;;;;2.90;1.20;;;;;;;;;;5079775;28;20469;-61
2023/09/24 12:34:59;;;;;;;1.90;1.10;;;;;;;;;;5081572;28;20459;-62
2023/09/24 12:37:28;;;;;;;2.75;1.13;;;;;;;;;;5079097;28;20403;-62
2023/09/24 12:39:55;;;;;;;3.37;1.30;;;;;;;;;;5078312;28;20419;-62
2023/09/24 12:42:22;;;;;;;2.75;1.13;;;;;;;;;;5080432;28;20411;-61
2023/09/24 12:44:49;;;;;;;2.65;1.10;;;;;;;;;;5080460;28;20405;-62
2023/09/24 12:47:18;;;;;;;3.55;1.10;;;;;;;;;;5078690;28;20824;-62
2023/09/24 12:49:45;;;;;;;3.22;1.30;;;;;;;;;;5079780;28;20415;-60
2023/09/24 12:52:12;;;;;;;3.75;1.10;;;;;;;;;;5083444;28;20880;-60
2023/09/24 12:54:39;;;;;;;2.35;0.95;;;;;;;;;;5080244;28;20447;-63
2023/09/24 12:57:06;;;;;;;3.40;1.10;;;;;;;;;;5085000;28;20493;-63
2023/09/24 12:59:33;;;;;;;2.70;1.30;;;;;;;;;;5082029;28;20396;-63
2023/09/24 13:02:00;;;;;;;2.35;1.10;;;;;;;;;;5083074;28;20404;-63
2023/09/24 13:04:30;;;;;;;2.90;1.10;;;;;;;;;;5084564;28;20410;-62
2023/09/24 13:06:57;;;;;;;3.90;1.37;;;;;;;;;;5083691;28;20411;-62
2023/09/24 13:09:24;;;;;;;3.10;1.30;;;;;;;;;;5082214;28;20785;-63
2023/09/24 13:11:51;;;;;;;2.28;0.90;;;;;;;;;;5083969;28;20413;-63
2023/09/24 13:14:18;;;;;;;2.53;1.08;;;;;;;;;;5083927;28;20410;-63
2023/09/24 13:16:46;;;;;;;2.75;1.25;;;;;;;;;;5084146;28;20884;-63
2023/09/24 13:19:14;;;;;;;2.13;0.90;;;;;;;;;;5084060;28;20416;-62
2023/09/24 13:21:43;;;;;;;2.50;1.00;;;;;;;;;;5081822;28;20411;-63
2023/09/24 13:24:10;;;;;;;4.00;1.00;;;;;;;;;;5081519;28;20415;-63
2023/09/24 13:26:39;;;;;;;3.08;1.20;;;;;;;;;;5081695;28;20419;-62
2023/09/24 13:29:06;;;;;;;3.13;1.02;;;;;;;;;;5083427;28;20421;-62
2023/09/24 13:31:33;;;;;;;3.70;1.30;;;;;;;;;;5084023;28;20409;-64
2023/09/24 13:34:03;;;;;;;3.28;1.20;;;;;;;;;;5081755;28;20461;-60
2023/09/24 13:36:30;;;;;;;2.50;0.93;;;;;;;;;;5082069;28;20408;-63
2023/09/24 13:38:59;;;;;;;3.33;1.00;;;;;;;;;;5072738;28;20399;-63
2023/09/24 13:41:26;;;;;;;3.13;1.00;;;;;;;;;;5072974;28;20418;-63
2023/09/24 13:43:53;;;;;;;1.52;0.93;;;;;;;;;;5072268;28;20408;-64
2023/09/24 13:46:21;;;;;;;3.20;0.98;;;;;;;;;;5072908;28;20409;-62
2023/09/24 13:48:49;;;;;;;1.80;0.93;;;;;;;;;;5072663;28;20427;-63
2023/09/24 13:51:16;;;;;;;1.63;0.95;;;;;;;;;;5080611;28;20748;-62
2023/09/24 13:53:44;;;;;;;3.33;1.10;;;;;;;;;;5083964;28;20438;-62
2023/09/24 13:56:13;;;;;;;3.00;0.97;;;;;;;;;;5078535;28;20844;-61
2023/09/24 13:58:40;;;;;;;2.50;1.07;;;;;;;;;;5081897;28;20400;-62
2023/09/24 14:01:07;;;;;;;2.15;0.77;;;;;;;;;;5083939;28;20397;-62
2023/09/24 14:03:34;;;;;;;2.27;1.00;;;;;;;;;;5081148;28;20909;-62
2023/09/24 14:06:02;;;;;;;2.35;0.90;;;;;;;;;;5081153;28;20454;-61
2023/09/24 14:14:07;;;;;;;3.80;0.90;;;;;;;;;;5074098;28;20597;-66
2023/09/24 14:16:37;;;;;;;2.20;1.00;;;;;;;;;;5084756;28;20441;-66
2023/09/24 14:19:05;;;;;;;1.70;1.13;;;;;;;;;;5084575;28;20406;-66
2023/09/24 14:21:31;;;;;;;2.47;0.85;;;;;;;;;;5081551;28;20413;-66
2023/09/24 14:23:58;;;;;;;1.70;0.90;;;;;;;;;;5081728;28;20416;-66
2023/09/24 14:26:28;;;;;;;2.30;0.88;;;;;;;;;;5083436;28;20406;-66
2023/09/24 14:28:57;;;;;;;3.70;0.90;;;;;;;;;;5082081;28;20506;-66
2023/09/24 14:31:24;;;;;;;2.47;0.90;;;;;;;;;;5081049;28;20869;-66
2023/09/24 14:44:42;;;;;;;2.17;1.10;;;;;;;;;;5079260;28;20415;-65
2023/09/24 14:47:09;;;;;;;1.83;0.95;;;;;;;;;;5078348;28;20422;-65
2023/09/24 14:49:36;;;;;;;2.53;1.00;;;;;;;;;;5080475;28;20840;-65
2023/09/24 14:52:03;;;;;;;1.30;0.80;;;;;;;;;;5082462;28;20496;-65
2023/09/24 14:54:30;;;;;;;2.03;1.07;;;;;;;;;;5076543;28;20448;-64
2023/09/24 14:56:57;;;;;;;3.50;0.90;;;;;;;;;;5080383;28;20471;-67